sensor_id;sensor_type;location;lat;lon;timestamp;pressure;altitude;pressure_sealevel;temperature
68510;BMP180;55512;50.102;19.958;2023-04-29T00:02:09;98538.20;;;8.50
68510;BMP180;55512;50.102;19.958;2023-04-29T00:04:35;98533.60;;;8.40
68510;BMP180;55512;50.102;19.958;2023-04-29T00:07:00;98534.80;;;8.40
68510;BMP180;55512;50.102;19.958;2023-04-29T00:09:26;98534.40;;;8.40
68510;BMP180;55512;50.102;19.958;2023-04-29T00:11:51;98536.60;;;8.40
68510;BMP180;55512;50.102;19.958;2023-04-29T00:14:16;98538.20;;;8.40
68510;BMP180;55512;50.102;19.958;2023-04-29T00:16:42;98534.00;;;8.40
68510;BMP180;55512;50.102;19.958;2023-04-29T00:19:07;98534.60;;;8.32
68510;BMP180;55512;50.102;19.958;2023-04-29T00:21:33;98533.40;;;8.30
68510;BMP180;55512;50.102;19.958;2023-04-29T00:23:58;98528.20;;;8.30
68510;BMP180;55512;50.102;19.958;2023-04-29T00:26:24;98532.00;;;8.30
68510;BMP180;55512;50.102;19.958;2023-04-29T00:28:50;98531.80;;;8.30
68510;BMP180;55512;50.102;19.958;2023-04-29T00:31:15;98534.80;;;8.26
68510;BMP180;55512;50.102;19.958;2023-04-29T00:33:40;98530.80;;;8.20
68510;BMP180;55512;50.102;19.958;2023-04-29T00:36:07;98524.80;;;8.20
68510;BMP180;55512;50.102;19.958;2023-04-29T00:38:33;98528.80;;;8.20
68510;BMP180;55512;50.102;19.958;2023-04-29T00:40:59;98526.00;;;8.10
68510;BMP180;55512;50.102;19.958;2023-04-29T00:43:25;98521.00;;;8.10
68510;BMP180;55512;50.102;19.958;2023-04-29T00:45:50;98519.20;;;8.10
68510;BMP180;55512;50.102;19.958;2023-04-29T00:48:16;98514.80;;;8.00
68510;BMP180;55512;50.102;19.958;2023-04-29T00:50:42;98517.00;;;8.00
68510;BMP180;55512;50.102;19.958;2023-04-29T00:53:11;98515.40;;;8.00
68510;BMP180;55512;50.102;19.958;2023-04-29T00:55:38;98517.20;;;8.00
68510;BMP180;55512;50.102;19.958;2023-04-29T00:58:04;98515.80;;;8.00
68510;BMP180;55512;50.102;19.958;2023-04-29T01:00:30;98518.40;;;7.92
68510;BMP180;55512;50.102;19.958;2023-04-29T01:02:56;98521.00;;;7.90
68510;BMP180;55512;50.102;19.958;2023-04-29T01:05:23;98521.60;;;7.90
68510;BMP180;55512;50.102;19.958;2023-04-29T01:08:15;98518.00;;;7.80
68510;BMP180;55512;50.102;19.958;2023-04-29T01:11:10;98520.40;;;7.80
68510;BMP180;55512;50.102;19.958;2023-04-29T01:16:10;98517.00;;;7.72
68510;BMP180;55512;50.102;19.958;2023-04-29T01:18:54;98513.00;;;7.70
68510;BMP180;55512;50.102;19.958;2023-04-29T01:21:20;98509.00;;;7.70
68510;BMP180;55512;50.102;19.958;2023-04-29T01:23:47;98510.20;;;7.70
68510;BMP180;55512;50.102;19.958;2023-04-29T01:26:17;98507.60;;;7.60
68510;BMP180;55512;50.102;19.958;2023-04-29T01:32:17;98509.60;;;7.50
68510;BMP180;55512;50.102;19.958;2023-04-29T01:37:30;98504.60;;;7.50
68510;BMP180;55512;50.102;19.958;2023-04-29T01:40:37;98505.40;;;7.50
68510;BMP180;55512;50.102;19.958;2023-04-29T01:43:07;98508.80;;;7.50
68510;BMP180;55512;50.102;19.958;2023-04-29T01:45:37;98510.80;;;7.50
68510;BMP180;55512;50.102;19.958;2023-04-29T01:48:07;98507.60;;;7.50
68510;BMP180;55512;50.102;19.958;2023-04-29T01:50:33;98510.80;;;7.50
68510;BMP180;55512;50.102;19.958;2023-04-29T01:52:59;98511.20;;;7.50
68510;BMP180;55512;50.102;19.958;2023-04-29T01:55:24;98503.60;;;7.50
68510;BMP180;55512;50.102;19.958;2023-04-29T01:57:50;98504.60;;;7.50
68510;BMP180;55512;50.102;19.958;2023-04-29T02:00:16;98510.00;;;7.50
68510;BMP180;55512;50.102;19.958;2023-04-29T02:02:42;98510.40;;;7.50
68510;BMP180;55512;50.102;19.958;2023-04-29T02:05:08;98508.60;;;7.50
68510;BMP180;55512;50.102;19.958;2023-04-29T02:07:34;98504.20;;;7.50
68510;BMP180;55512;50.102;19.958;2023-04-29T02:09:59;98504.20;;;7.50
68510;BMP180;55512;50.102;19.958;2023-04-29T02:12:25;98502.40;;;7.42
68510;BMP180;55512;50.102;19.958;2023-04-29T02:14:53;98500.40;;;7.42
68510;BMP180;55512;50.102;19.958;2023-04-29T02:17:19;98500.20;;;7.50
68510;BMP180;55512;50.102;19.958;2023-04-29T02:19:44;98498.60;;;7.46
68510;BMP180;55512;50.102;19.958;2023-04-29T02:22:10;98498.40;;;7.40
68510;BMP180;55512;50.102;19.958;2023-04-29T02:24:37;98492.80;;;7.40
68510;BMP180;55512;50.102;19.958;2023-04-29T02:27:03;98494.80;;;7.40
68510;BMP180;55512;50.102;19.958;2023-04-29T02:29:30;98499.20;;;7.50
68510;BMP180;55512;50.102;19.958;2023-04-29T02:31:56;98504.80;;;7.50
68510;BMP180;55512;50.102;19.958;2023-04-29T02:34:22;98500.00;;;7.60
68510;BMP180;55512;50.102;19.958;2023-04-29T02:36:48;98499.40;;;7.60
68510;BMP180;55512;50.102;19.958;2023-04-29T02:39:14;98502.80;;;7.60
68510;BMP180;55512;50.102;19.958;2023-04-29T02:41:41;98504.40;;;7.70
68510;BMP180;55512;50.102;19.958;2023-04-29T02:44:07;98514.60;;;7.70
68510;BMP180;55512;50.102;19.958;2023-04-29T02:46:32;98508.60;;;7.70
68510;BMP180;55512;50.102;19.958;2023-04-29T02:49:00;98498.60;;;7.80
68510;BMP180;55512;50.102;19.958;2023-04-29T02:51:26;98497.00;;;7.80
68510;BMP180;55512;50.102;19.958;2023-04-29T02:53:52;98498.00;;;7.88
68510;BMP180;55512;50.102;19.958;2023-04-29T02:56:18;98497.20;;;7.90
68510;BMP180;55512;50.102;19.958;2023-04-29T02:58:43;98495.40;;;7.90
68510;BMP180;55512;50.102;19.958;2023-04-29T03:01:08;98489.60;;;7.92
68510;BMP180;55512;50.102;19.958;2023-04-29T03:03:34;98488.60;;;8.00
68510;BMP180;55512;50.102;19.958;2023-04-29T03:05:59;98488.80;;;8.00
68510;BMP180;55512;50.102;19.958;2023-04-29T03:08:25;98489.00;;;8.00
68510;BMP180;55512;50.102;19.958;2023-04-29T03:10:50;98490.00;;;8.00
68510;BMP180;55512;50.102;19.958;2023-04-29T03:13:15;98488.60;;;8.00
68510;BMP180;55512;50.102;19.958;2023-04-29T03:15:41;98481.40;;;8.10
68510;BMP180;55512;50.102;19.958;2023-04-29T03:18:07;98480.80;;;8.10
68510;BMP180;55512;50.102;19.958;2023-04-29T03:20:34;98482.60;;;8.10
68510;BMP180;55512;50.102;19.958;2023-04-29T03:22:59;98481.20;;;8.10
68510;BMP180;55512;50.102;19.958;2023-04-29T03:25:25;98484.00;;;8.12
68510;BMP180;55512;50.102;19.958;2023-04-29T03:27:50;98482.00;;;8.10
68510;BMP180;55512;50.102;19.958;2023-04-29T03:30:34;98482.00;;;8.16
68510;BMP180;55512;50.102;19.958;2023-04-29T03:33:00;98482.40;;;8.20
68510;BMP180;55512;50.102;19.958;2023-04-29T03:35:26;98479.60;;;8.20
68510;BMP180;55512;50.102;19.958;2023-04-29T03:37:51;98481.20;;;8.20
68510;BMP180;55512;50.102;19.958;2023-04-29T03:40:17;98482.40;;;8.20
68510;BMP180;55512;50.102;19.958;2023-04-29T03:42:43;98483.00;;;8.20
68510;BMP180;55512;50.102;19.958;2023-04-29T03:45:09;98479.40;;;8.20
68510;BMP180;55512;50.102;19.958;2023-04-29T03:47:37;98482.20;;;8.20
68510;BMP180;55512;50.102;19.958;2023-04-29T03:50:03;98482.80;;;8.20
68510;BMP180;55512;50.102;19.958;2023-04-29T03:52:29;98478.80;;;8.24
68510;BMP180;55512;50.102;19.958;2023-04-29T03:54:54;98485.80;;;8.30
68510;BMP180;55512;50.102;19.958;2023-04-29T03:57:20;98488.40;;;8.30
68510;BMP180;55512;50.102;19.958;2023-04-29T03:59:45;98487.20;;;8.30
68510;BMP180;55512;50.102;19.958;2023-04-29T04:02:15;98482.80;;;8.30
68510;BMP180;55512;50.102;19.958;2023-04-29T04:04:41;98484.40;;;8.30
68510;BMP180;55512;50.102;19.958;2023-04-29T04:07:06;98485.20;;;8.30
68510;BMP180;55512;50.102;19.958;2023-04-29T04:09:32;98482.60;;;8.30
68510;BMP180;55512;50.102;19.958;2023-04-29T04:11:58;98481.60;;;8.30
68510;BMP180;55512;50.102;19.958;2023-04-29T04:14:24;98484.40;;;8.30
68510;BMP180;55512;50.102;19.958;2023-04-29T04:16:50;98485.00;;;8.40
68510;BMP180;55512;50.102;19.958;2023-04-29T04:19:16;98484.40;;;8.40
68510;BMP180;55512;50.102;19.958;2023-04-29T04:21:41;98485.80;;;8.38
68510;BMP180;55512;50.102;19.958;2023-04-29T04:24:07;98486.60;;;8.40
68510;BMP180;55512;50.102;19.958;2023-04-29T04:26:33;98483.60;;;8.40
68510;BMP180;55512;50.102;19.958;2023-04-29T04:28:58;98486.20;;;8.38
68510;BMP180;55512;50.102;19.958;2023-04-29T04:31:24;98484.00;;;8.40
68510;BMP180;55512;50.102;19.958;2023-04-29T04:33:49;98477.40;;;8.40
68510;BMP180;55512;50.102;19.958;2023-04-29T04:36:15;98482.60;;;8.40
68510;BMP180;55512;50.102;19.958;2023-04-29T04:38:40;98484.20;;;8.40
68510;BMP180;55512;50.102;19.958;2023-04-29T04:41:06;98476.00;;;8.40
68510;BMP180;55512;50.102;19.958;2023-04-29T04:43:34;98476.60;;;8.40
68510;BMP180;55512;50.102;19.958;2023-04-29T04:46:09;98471.00;;;8.50
68510;BMP180;55512;50.102;19.958;2023-04-29T04:48:35;98470.60;;;8.50
68510;BMP180;55512;50.102;19.958;2023-04-29T04:51:08;98471.00;;;8.50
68510;BMP180;55512;50.102;19.958;2023-04-29T04:53:33;98470.60;;;8.50
68510;BMP180;55512;50.102;19.958;2023-04-29T04:56:03;98474.40;;;8.58
68510;BMP180;55512;50.102;19.958;2023-04-29T04:58:29;98476.40;;;8.60
68510;BMP180;55512;50.102;19.958;2023-04-29T05:00:56;98474.40;;;8.60
68510;BMP180;55512;50.102;19.958;2023-04-29T05:03:21;98473.80;;;8.66
68510;BMP180;55512;50.102;19.958;2023-04-29T05:05:58;98475.00;;;8.70
68510;BMP180;55512;50.102;19.958;2023-04-29T05:08:24;98473.80;;;8.76
68510;BMP180;55512;50.102;19.958;2023-04-29T05:10:50;98475.20;;;8.80
68510;BMP180;55512;50.102;19.958;2023-04-29T05:13:16;98475.80;;;8.82
68510;BMP180;55512;50.102;19.958;2023-04-29T05:15:42;98478.80;;;8.90
68510;BMP180;55512;50.102;19.958;2023-04-29T05:18:09;98478.20;;;8.90
68510;BMP180;55512;50.102;19.958;2023-04-29T05:20:35;98476.60;;;8.98
68510;BMP180;55512;50.102;19.958;2023-04-29T05:23:01;98472.80;;;9.00
68510;BMP180;55512;50.102;19.958;2023-04-29T05:25:27;98476.20;;;9.10
68510;BMP180;55512;50.102;19.958;2023-04-29T05:27:53;98475.80;;;9.10
68510;BMP180;55512;50.102;19.958;2023-04-29T05:30:19;98484.00;;;9.20
68510;BMP180;55512;50.102;19.958;2023-04-29T05:32:44;98482.00;;;9.20
68510;BMP180;55512;50.102;19.958;2023-04-29T05:35:10;98485.60;;;9.26
68510;BMP180;55512;50.102;19.958;2023-04-29T05:37:36;98483.60;;;9.30
68510;BMP180;55512;50.102;19.958;2023-04-29T05:40:02;98486.40;;;9.30
68510;BMP180;55512;50.102;19.958;2023-04-29T05:42:28;98493.00;;;9.30
68510;BMP180;55512;50.102;19.958;2023-04-29T05:44:54;98493.40;;;9.32
68510;BMP180;55512;50.102;19.958;2023-04-29T05:47:19;98490.40;;;9.38
68510;BMP180;55512;50.102;19.958;2023-04-29T05:49:44;98492.00;;;9.40
68510;BMP180;55512;50.102;19.958;2023-04-29T05:52:10;98490.80;;;9.50
68510;BMP180;55512;50.102;19.958;2023-04-29T05:54:36;98494.40;;;9.58
68510;BMP180;55512;50.102;19.958;2023-04-29T05:57:01;98491.40;;;9.60
68510;BMP180;55512;50.102;19.958;2023-04-29T05:59:31;98489.00;;;9.70
68510;BMP180;55512;50.102;19.958;2023-04-29T06:01:57;98481.80;;;9.78
68510;BMP180;55512;50.102;19.958;2023-04-29T06:04:24;98485.60;;;9.90
68510;BMP180;55512;50.102;19.958;2023-04-29T06:06:50;98488.00;;;9.90
68510;BMP180;55512;50.102;19.958;2023-04-29T06:09:17;98490.00;;;10.00
68510;BMP180;55512;50.102;19.958;2023-04-29T06:11:43;98490.60;;;10.10
68510;BMP180;55512;50.102;19.958;2023-04-29T06:14:10;98493.00;;;10.22
68510;BMP180;55512;50.102;19.958;2023-04-29T06:16:35;98490.60;;;10.30
68510;BMP180;55512;50.102;19.958;2023-04-29T06:19:01;98496.00;;;10.44
68510;BMP180;55512;50.102;19.958;2023-04-29T06:21:27;98492.20;;;10.54
68510;BMP180;55512;50.102;19.958;2023-04-29T06:23:53;98492.60;;;10.64
68510;BMP180;55512;50.102;19.958;2023-04-29T06:26:19;98494.20;;;10.70
68510;BMP180;55512;50.102;19.958;2023-04-29T06:28:46;98493.80;;;10.80
68510;BMP180;55512;50.102;19.958;2023-04-29T06:31:11;98491.40;;;10.90
68510;BMP180;55512;50.102;19.958;2023-04-29T06:33:37;98491.20;;;11.00
68510;BMP180;55512;50.102;19.958;2023-04-29T06:36:03;98485.40;;;11.10
68510;BMP180;55512;50.102;19.958;2023-04-29T06:38:29;98485.60;;;11.20
68510;BMP180;55512;50.102;19.958;2023-04-29T06:40:55;98479.60;;;11.30
68510;BMP180;55512;50.102;19.958;2023-04-29T06:43:26;98480.80;;;11.42
68510;BMP180;55512;50.102;19.958;2023-04-29T06:45:51;98486.00;;;11.58
68510;BMP180;55512;50.102;19.958;2023-04-29T06:48:16;98487.00;;;11.70
68510;BMP180;55512;50.102;19.958;2023-04-29T06:50:56;98488.60;;;11.80
68510;BMP180;55512;50.102;19.958;2023-04-29T06:53:23;98481.60;;;11.90
68510;BMP180;55512;50.102;19.958;2023-04-29T06:55:49;98487.00;;;12.10
68510;BMP180;55512;50.102;19.958;2023-04-29T06:58:16;98489.40;;;12.20
68510;BMP180;55512;50.102;19.958;2023-04-29T07:00:49;98491.00;;;12.30
68510;BMP180;55512;50.102;19.958;2023-04-29T07:03:17;98488.00;;;12.40
68510;BMP180;55512;50.102;19.958;2023-04-29T07:05:44;98487.60;;;12.58
68510;BMP180;55512;50.102;19.958;2023-04-29T07:08:13;98483.60;;;12.70
68510;BMP180;55512;50.102;19.958;2023-04-29T07:10:39;98487.40;;;12.80
68510;BMP180;55512;50.102;19.958;2023-04-29T07:13:06;98486.80;;;12.90
68510;BMP180;55512;50.102;19.958;2023-04-29T07:15:36;98488.20;;;13.00
68510;BMP180;55512;50.102;19.958;2023-04-29T07:18:05;98491.20;;;13.10
68510;BMP180;55512;50.102;19.958;2023-04-29T07:20:31;98490.20;;;13.18
68510;BMP180;55512;50.102;19.958;2023-04-29T07:22:57;98486.60;;;13.22
68510;BMP180;55512;50.102;19.958;2023-04-29T07:25:22;98482.60;;;13.36
68510;BMP180;55512;50.102;19.958;2023-04-29T07:27:48;98483.60;;;13.50
68510;BMP180;55512;50.102;19.958;2023-04-29T07:30:13;98485.40;;;13.60
68510;BMP180;55512;50.102;19.958;2023-04-29T07:32:39;98486.60;;;13.70
68510;BMP180;55512;50.102;19.958;2023-04-29T07:35:05;98486.40;;;13.80
68510;BMP180;55512;50.102;19.958;2023-04-29T07:37:30;98488.60;;;13.90
68510;BMP180;55512;50.102;19.958;2023-04-29T07:39:56;98485.40;;;14.10
68510;BMP180;55512;50.102;19.958;2023-04-29T07:42:21;98483.40;;;14.20
68510;BMP180;55512;50.102;19.958;2023-04-29T07:44:47;98482.60;;;14.38
68510;BMP180;55512;50.102;19.958;2023-04-29T07:47:12;98484.60;;;14.50
68510;BMP180;55512;50.102;19.958;2023-04-29T07:49:38;98480.40;;;14.60
68510;BMP180;55512;50.102;19.958;2023-04-29T07:52:04;98478.40;;;14.76
68510;BMP180;55512;50.102;19.958;2023-04-29T07:54:30;98476.00;;;14.90
68510;BMP180;55512;50.102;19.958;2023-04-29T07:56:57;98479.20;;;15.10
68510;BMP180;55512;50.102;19.958;2023-04-29T07:59:22;98486.40;;;15.20
68510;BMP180;55512;50.102;19.958;2023-04-29T08:01:48;98486.80;;;15.30
68510;BMP180;55512;50.102;19.958;2023-04-29T08:04:13;98488.20;;;15.40
68510;BMP180;55512;50.102;19.958;2023-04-29T08:06:39;98493.60;;;15.48
68510;BMP180;55512;50.102;19.958;2023-04-29T08:09:06;98496.40;;;15.60
68510;BMP180;55512;50.102;19.958;2023-04-29T08:11:32;98498.80;;;15.70
68510;BMP180;55512;50.102;19.958;2023-04-29T08:13:57;98496.20;;;15.82
68510;BMP180;55512;50.102;19.958;2023-04-29T08:16:25;98496.40;;;16.00
68510;BMP180;55512;50.102;19.958;2023-04-29T08:18:51;98497.20;;;16.10
68510;BMP180;55512;50.102;19.958;2023-04-29T08:21:17;98495.60;;;16.20
68510;BMP180;55512;50.102;19.958;2023-04-29T08:23:43;98497.20;;;16.20
68510;BMP180;55512;50.102;19.958;2023-04-29T08:26:10;98495.00;;;16.30
68510;BMP180;55512;50.102;19.958;2023-04-29T08:28:38;98491.40;;;16.42
68510;BMP180;55512;50.102;19.958;2023-04-29T08:31:03;98494.20;;;16.60
68510;BMP180;55512;50.102;19.958;2023-04-29T08:33:34;98488.80;;;16.70
68510;BMP180;55512;50.102;19.958;2023-04-29T08:36:00;98494.80;;;16.80
68510;BMP180;55512;50.102;19.958;2023-04-29T08:38:28;98496.60;;;16.80
68510;BMP180;55512;50.102;19.958;2023-04-29T08:40:54;98493.40;;;16.80
68510;BMP180;55512;50.102;19.958;2023-04-29T08:43:21;98490.00;;;16.90
68510;BMP180;55512;50.102;19.958;2023-04-29T08:45:50;98487.20;;;17.06
68510;BMP180;55512;50.102;19.958;2023-04-29T08:48:16;98491.80;;;17.20
68510;BMP180;55512;50.102;19.958;2023-04-29T08:50:43;98492.40;;;17.38
68510;BMP180;55512;50.102;19.958;2023-04-29T08:53:11;98491.80;;;17.50
68510;BMP180;55512;50.102;19.958;2023-04-29T08:55:42;98492.00;;;17.60
68510;BMP180;55512;50.102;19.958;2023-04-29T08:58:09;98490.80;;;17.70
68510;BMP180;55512;50.102;19.958;2023-04-29T09:00:36;98494.00;;;17.70
68510;BMP180;55512;50.102;19.958;2023-04-29T09:03:14;98492.80;;;17.80
68510;BMP180;55512;50.102;19.958;2023-04-29T09:05:42;98492.40;;;17.84
68510;BMP180;55512;50.102;19.958;2023-04-29T09:08:11;98489.40;;;17.90
68510;BMP180;55512;50.102;19.958;2023-04-29T09:10:40;98488.00;;;18.00
68510;BMP180;55512;50.102;19.958;2023-04-29T09:13:06;98487.40;;;18.10
68510;BMP180;55512;50.102;19.958;2023-04-29T09:15:37;98489.20;;;18.20
68510;BMP180;55512;50.102;19.958;2023-04-29T09:18:06;98488.80;;;18.20
68510;BMP180;55512;50.102;19.958;2023-04-29T09:20:32;98489.00;;;18.20
68510;BMP180;55512;50.102;19.958;2023-04-29T09:23:02;98487.40;;;18.20
68510;BMP180;55512;50.102;19.958;2023-04-29T09:25:29;98484.20;;;18.30
68510;BMP180;55512;50.102;19.958;2023-04-29T09:27:56;98489.80;;;18.30
68510;BMP180;55512;50.102;19.958;2023-04-29T09:30:22;98492.80;;;18.30
68510;BMP180;55512;50.102;19.958;2023-04-29T09:33:07;98489.60;;;18.30
68510;BMP180;55512;50.102;19.958;2023-04-29T09:35:33;98486.60;;;18.20
68510;BMP180;55512;50.102;19.958;2023-04-29T09:38:12;98484.20;;;18.20
68510;BMP180;55512;50.102;19.958;2023-04-29T09:40:39;98487.80;;;18.30
68510;BMP180;55512;50.102;19.958;2023-04-29T09:43:15;98485.60;;;18.32
68510;BMP180;55512;50.102;19.958;2023-04-29T09:45:45;98482.40;;;18.40
68510;BMP180;55512;50.102;19.958;2023-04-29T09:48:13;98485.20;;;18.40
68510;BMP180;55512;50.102;19.958;2023-04-29T09:50:41;98484.00;;;18.40
68510;BMP180;55512;50.102;19.958;2023-04-29T09:53:09;98476.40;;;18.40
68510;BMP180;55512;50.102;19.958;2023-04-29T09:55:57;98478.00;;;18.40
68510;BMP180;55512;50.102;19.958;2023-04-29T09:58:33;98477.60;;;18.40
68510;BMP180;55512;50.102;19.958;2023-04-29T10:01:02;98481.20;;;18.40
68510;BMP180;55512;50.102;19.958;2023-04-29T10:03:34;98479.20;;;18.40
68510;BMP180;55512;50.102;19.958;2023-04-29T10:06:01;98481.20;;;18.34
68510;BMP180;55512;50.102;19.958;2023-04-29T10:08:32;98478.80;;;18.30
68510;BMP180;55512;50.102;19.958;2023-04-29T10:11:02;98481.20;;;18.30
68510;BMP180;55512;50.102;19.958;2023-04-29T10:13:29;98474.60;;;18.30
68510;BMP180;55512;50.102;19.958;2023-04-29T10:18:53;98470.20;;;18.12
68510;BMP180;55512;50.102;19.958;2023-04-29T10:21:30;98465.20;;;18.10
68510;BMP180;55512;50.102;19.958;2023-04-29T10:23:58;98466.40;;;18.12
68510;BMP180;55512;50.102;19.958;2023-04-29T10:26:27;98468.20;;;18.20
68510;BMP180;55512;50.102;19.958;2023-04-29T10:28:58;98467.40;;;18.30
68510;BMP180;55512;50.102;19.958;2023-04-29T10:31:28;98469.20;;;18.30
68510;BMP180;55512;50.102;19.958;2023-04-29T10:33:56;98468.60;;;18.16
68510;BMP180;55512;50.102;19.958;2023-04-29T10:36:27;98461.40;;;18.00
68510;BMP180;55512;50.102;19.958;2023-04-29T10:38:59;98461.40;;;17.92
68510;BMP180;55512;50.102;19.958;2023-04-29T10:44:13;98458.40;;;17.70
68510;BMP180;55512;50.102;19.958;2023-04-29T10:46:39;98457.00;;;17.70
68510;BMP180;55512;50.102;19.958;2023-04-29T10:49:06;98456.00;;;17.60
68510;BMP180;55512;50.102;19.958;2023-04-29T10:51:43;98458.00;;;17.50
68510;BMP180;55512;50.102;19.958;2023-04-29T10:56:50;98451.00;;;17.40
68510;BMP180;55512;50.102;19.958;2023-04-29T11:02:04;98452.80;;;17.50
68510;BMP180;55512;50.102;19.958;2023-04-29T11:04:30;98448.60;;;17.60
68510;BMP180;55512;50.102;19.958;2023-04-29T11:06:57;98446.80;;;17.60
68510;BMP180;55512;50.102;19.958;2023-04-29T11:09:24;98449.40;;;17.70
68510;BMP180;55512;50.102;19.958;2023-04-29T11:12:07;98444.20;;;17.80
68510;BMP180;55512;50.102;19.958;2023-04-29T11:14:42;98442.00;;;17.88
68510;BMP180;55512;50.102;19.958;2023-04-29T11:17:17;98437.80;;;17.90
68510;BMP180;55512;50.102;19.958;2023-04-29T11:19:51;98442.80;;;17.90
68510;BMP180;55512;50.102;19.958;2023-04-29T11:25:03;98447.20;;;17.90
68510;BMP180;55512;50.102;19.958;2023-04-29T11:27:34;98449.80;;;17.90
68510;BMP180;55512;50.102;19.958;2023-04-29T11:30:03;98454.00;;;17.80
68510;BMP180;55512;50.102;19.958;2023-04-29T11:32:38;98456.20;;;17.76
68510;BMP180;55512;50.102;19.958;2023-04-29T11:37:39;98454.40;;;17.60
68510;BMP180;55512;50.102;19.958;2023-04-29T11:40:08;98448.60;;;17.60
68510;BMP180;55512;50.102;19.958;2023-04-29T11:42:40;98442.20;;;17.60
68510;BMP180;55512;50.102;19.958;2023-04-29T11:45:06;98442.20;;;17.70
68510;BMP180;55512;50.102;19.958;2023-04-29T11:47:32;98435.00;;;17.70
68510;BMP180;55512;50.102;19.958;2023-04-29T11:50:08;98434.00;;;17.80
68510;BMP180;55512;50.102;19.958;2023-04-29T11:52:37;98436.80;;;17.90
68510;BMP180;55512;50.102;19.958;2023-04-29T11:55:04;98439.60;;;18.00
68510;BMP180;55512;50.102;19.958;2023-04-29T11:57:30;98438.80;;;18.02
68510;BMP180;55512;50.102;19.958;2023-04-29T11:59:59;98438.00;;;18.10
68510;BMP180;55512;50.102;19.958;2023-04-29T12:02:33;98436.80;;;18.10
68510;BMP180;55512;50.102;19.958;2023-04-29T12:05:04;98437.00;;;18.10
68510;BMP180;55512;50.102;19.958;2023-04-29T12:07:30;98434.80;;;18.10
68510;BMP180;55512;50.102;19.958;2023-04-29T12:09:56;98438.20;;;18.06
68510;BMP180;55512;50.102;19.958;2023-04-29T12:12:22;98436.60;;;18.00
68510;BMP180;55512;50.102;19.958;2023-04-29T12:14:48;98436.00;;;18.00
68510;BMP180;55512;50.102;19.958;2023-04-29T12:17:15;98433.40;;;17.98
68510;BMP180;55512;50.102;19.958;2023-04-29T12:19:42;98433.60;;;17.90
68510;BMP180;55512;50.102;19.958;2023-04-29T12:22:08;98435.00;;;17.90
68510;BMP180;55512;50.102;19.958;2023-04-29T12:24:39;98433.60;;;17.98
68510;BMP180;55512;50.102;19.958;2023-04-29T12:27:09;98436.40;;;18.00
68510;BMP180;55512;50.102;19.958;2023-04-29T12:29:36;98432.40;;;18.00
68510;BMP180;55512;50.102;19.958;2023-04-29T12:32:02;98430.60;;;18.00
68510;BMP180;55512;50.102;19.958;2023-04-29T12:34:29;98429.00;;;18.04
68510;BMP180;55512;50.102;19.958;2023-04-29T12:36:58;98429.40;;;18.10
68510;BMP180;55512;50.102;19.958;2023-04-29T12:39:25;98428.20;;;18.10
68510;BMP180;55512;50.102;19.958;2023-04-29T12:41:58;98424.60;;;18.04
68510;BMP180;55512;50.102;19.958;2023-04-29T12:44:24;98426.40;;;18.10
68510;BMP180;55512;50.102;19.958;2023-04-29T12:46:50;98420.60;;;18.10
68510;BMP180;55512;50.102;19.958;2023-04-29T12:49:17;98418.60;;;18.10
68510;BMP180;55512;50.102;19.958;2023-04-29T12:51:43;98419.40;;;18.14
68510;BMP180;55512;50.102;19.958;2023-04-29T12:54:09;98418.20;;;18.20
68510;BMP180;55512;50.102;19.958;2023-04-29T12:56:37;98416.40;;;18.20
68510;BMP180;55512;50.102;19.958;2023-04-29T12:59:07;98415.20;;;18.20
68510;BMP180;55512;50.102;19.958;2023-04-29T13:01:37;98416.00;;;18.20
68510;BMP180;55512;50.102;19.958;2023-04-29T13:04:04;98415.40;;;18.20
68510;BMP180;55512;50.102;19.958;2023-04-29T13:06:33;98416.40;;;18.20
68510;BMP180;55512;50.102;19.958;2023-04-29T13:08:59;98413.00;;;18.20
68510;BMP180;55512;50.102;19.958;2023-04-29T13:11:25;98419.20;;;18.10
68510;BMP180;55512;50.102;19.958;2023-04-29T13:13:50;98414.20;;;18.10
68510;BMP180;55512;50.102;19.958;2023-04-29T13:16:15;98413.60;;;18.00
68510;BMP180;55512;50.102;19.958;2023-04-29T13:18:41;98413.00;;;17.82
68510;BMP180;55512;50.102;19.958;2023-04-29T13:21:07;98414.00;;;17.70
68510;BMP180;55512;50.102;19.958;2023-04-29T13:23:32;98416.00;;;17.60
68510;BMP180;55512;50.102;19.958;2023-04-29T13:25:58;98412.80;;;17.60
68510;BMP180;55512;50.102;19.958;2023-04-29T13:28:23;98419.80;;;17.60
68510;BMP180;55512;50.102;19.958;2023-04-29T13:30:49;98415.60;;;17.54
68510;BMP180;55512;50.102;19.958;2023-04-29T13:33:15;98415.80;;;17.50
68510;BMP180;55512;50.102;19.958;2023-04-29T13:35:41;98406.80;;;17.50
68510;BMP180;55512;50.102;19.958;2023-04-29T13:38:07;98409.60;;;17.50
68510;BMP180;55512;50.102;19.958;2023-04-29T13:40:33;98406.40;;;17.50
68510;BMP180;55512;50.102;19.958;2023-04-29T13:42:58;98404.00;;;17.50
68510;BMP180;55512;50.102;19.958;2023-04-29T13:45:24;98401.40;;;17.54
68510;BMP180;55512;50.102;19.958;2023-04-29T13:47:50;98398.40;;;17.54
68510;BMP180;55512;50.102;19.958;2023-04-29T13:50:16;98398.60;;;17.56
68510;BMP180;55512;50.102;19.958;2023-04-29T13:52:41;98399.40;;;17.50
68510;BMP180;55512;50.102;19.958;2023-04-29T13:55:07;98402.40;;;17.52
68510;BMP180;55512;50.102;19.958;2023-04-29T13:57:33;98404.00;;;17.50
68510;BMP180;55512;50.102;19.958;2023-04-29T13:59:58;98403.40;;;17.50
68510;BMP180;55512;50.102;19.958;2023-04-29T14:02:24;98401.40;;;17.50
68510;BMP180;55512;50.102;19.958;2023-04-29T14:04:49;98400.20;;;17.50
68510;BMP180;55512;50.102;19.958;2023-04-29T14:07:15;98396.00;;;17.50
68510;BMP180;55512;50.102;19.958;2023-04-29T14:09:41;98397.40;;;17.58
68510;BMP180;55512;50.102;19.958;2023-04-29T14:12:07;98400.40;;;17.60
68510;BMP180;55512;50.102;19.958;2023-04-29T14:14:32;98401.20;;;17.60
68510;BMP180;55512;50.102;19.958;2023-04-29T14:16:58;98399.60;;;17.60
68510;BMP180;55512;50.102;19.958;2023-04-29T14:19:25;98403.60;;;17.60
68510;BMP180;55512;50.102;19.958;2023-04-29T14:21:51;98404.40;;;17.60
68510;BMP180;55512;50.102;19.958;2023-04-29T14:24:16;98404.20;;;17.60
68510;BMP180;55512;50.102;19.958;2023-04-29T14:26:42;98403.60;;;17.60
68510;BMP180;55512;50.102;19.958;2023-04-29T14:29:08;98407.60;;;17.60